Snow/Ice From: 16-12-2017 16:00 Until: 17-12-2017 16:00 warning for: Snow/Ice Level: Yellow info button

Although rather usual in this region, locally or potentially dangerous phenomena are expected. (such as local winds, summer thunderstorms, rising streams or high waves) Be aware and pay attention to the latest weather updates, especially if you carry out activities exposed to weather or close to a stream or shoreline. 


Meteo18 Weather Cam more information Meteo18 Weather Cam


Thunder radar more information blitzortung!


warning for Snow/Ice more information rain snow radar


Visit our other weather sites:

Template documentation
and downloads

And another site



Weather Underground History page Text

Daily Summary for March 30, 2017 Units:  Both    English   Metric
« Previous Day
Next Day »
Daily Weekly Monthly Yearly Custom
  High: Low: Average:
Temperature: 73.2 °F /  22.9 °C 47.1 °F /  8.4 °C 59.9 °F /  15.5 °C
Dew Point: 52.2 °F /  11.2 °C 41.9 °F /  5.5 °C 45.9 °F /  7.7 °C
Humidity: 83 % 38 % 62 %
Wind Speed: 8 mph /  12.9 km/h - 1.7 mph /  2.8 km/h
Wind Gust: 12 mph /  19.3 km/h - -
Wind:- - South
Pressure: 30.3 in /  1027.3 hPa 30.1 in /  1018.8 hPa -
Precipitation: 0 in /  0.0 mm    
Historical Graphs
 
 
Tabular Data for March 30, 2017
Time Temperature Dew Point Pressure Wind Wind Speed Wind Gust Humidity Rainfall Rate (Hourly)
00:02 54.7 °F /  12.6 °C 43.9 °F /  6.6 °C 30.3 in /  1027.3 hPa NNW 1 mph /  1.6 km/h 2 mph /  3.2 km/h 67 % 0 in /  0.0 mm
00:12 53.8 °F /  12.1 °C 43.9 °F /  6.6 °C 30.3 in /  1027.3 hPa Calm   1 mph /  1.6 km/h 69 % 0 in /  0.0 mm
00:17 53.6 °F /  12.0 °C 43.7 °F /  6.5 °C 30.3 in /  1027.3 hPa Calm   1 mph /  1.6 km/h 69 % 0 in /  0.0 mm
00:22 53.2 °F /  11.8 °C 43.7 °F /  6.5 °C 30.3 in /  1027.3 hPa Calm   1 mph /  1.6 km/h 70 % 0 in /  0.0 mm
00:32 52.2 °F /  11.2 °C 43.3 °F /  6.3 °C 30.3 in /  1027.3 hPa Calm     72 % 0 in /  0.0 mm
00:42 52.7 °F /  11.5 °C 43.9 °F /  6.6 °C 30.3 in /  1027.0 hPa Calm     72 % 0 in /  0.0 mm
00:52 52.9 °F /  11.6 °C 43.7 °F /  6.5 °C 30.3 in /  1027.3 hPa Calm     71 % 0 in /  0.0 mm
00:57 52.5 °F /  11.4 °C 43.7 °F /  6.5 °C 30.3 in /  1027.3 hPa Calm     72 % 0 in /  0.0 mm
01:02 52.5 °F /  11.4 °C 43.3 °F /  6.3 °C 30.3 in /  1027.0 hPa Calm     71 % 0 in /  0.0 mm
01:12 52.2 °F /  11.2 °C 43.3 °F /  6.3 °C 30.3 in /  1027.0 hPa NW 1 mph /  1.6 km/h 1 mph /  1.6 km/h 72 % 0 in /  0.0 mm
01:17 52.5 °F /  11.4 °C 43.7 °F /  6.5 °C 30.3 in /  1027.0 hPa NW 1 mph /  1.6 km/h 1 mph /  1.6 km/h 72 % 0 in /  0.0 mm
01:22 52.9 °F /  11.6 °C 43.7 °F /  6.5 °C 30.3 in /  1027.0 hPa NW 1 mph /  1.6 km/h 2 mph /  3.2 km/h 71 % 0 in /  0.0 mm
01:32 52.9 °F /  11.6 °C 43.7 °F /  6.5 °C 30.3 in /  1027.0 hPa NW 1 mph /  1.6 km/h 2 mph /  3.2 km/h 71 % 0 in /  0.0 mm
01:42 52.9 °F /  11.6 °C 44.1 °F /  6.7 °C 30.3 in /  1027.0 hPa Calm   1 mph /  1.6 km/h 72 % 0 in /  0.0 mm
01:52 53.2 °F /  11.8 °C 44.1 °F /  6.7 °C 30.3 in /  1027.0 hPa NNW 1 mph /  1.6 km/h 2 mph /  3.2 km/h 71 % 0 in /  0.0 mm
01:57 53.1 °F /  11.7 °C 43.9 °F /  6.6 °C 30.3 in /  1027.0 hPa Calm   2 mph /  3.2 km/h 71 % 0 in /  0.0 mm
02:02 53.2 °F /  11.8 °C 44.1 °F /  6.7 °C 30.3 in /  1027.0 hPa Calm   2 mph /  3.2 km/h 71 % 0 in /  0.0 mm
02:12 53.1 °F /  11.7 °C 43.9 °F /  6.6 °C 30.3 in /  1027.0 hPa Calm   1 mph /  1.6 km/h 71 % 0 in /  0.0 mm
02:17 53.1 °F /  11.7 °C 43.9 °F /  6.6 °C 30.3 in /  1027.0 hPa Calm   1 mph /  1.6 km/h 71 % 0 in /  0.0 mm
02:22 52.9 °F /  11.6 °C 43.7 °F /  6.5 °C 30.3 in /  1027.0 hPa NNW 2 mph /  3.2 km/h 2 mph /  3.2 km/h 71 % 0 in /  0.0 mm
02:32 52.5 °F /  11.4 °C 43.3 °F /  6.3 °C 30.3 in /  1027.0 hPa Calm   2 mph /  3.2 km/h 71 % 0 in /  0.0 mm
02:42 52.7 °F /  11.5 °C 43.9 °F /  6.6 °C 30.3 in /  1027.0 hPa Calm   2 mph /  3.2 km/h 72 % 0 in /  0.0 mm
02:47 53.1 °F /  11.7 °C 43.9 °F /  6.6 °C 30.3 in /  1026.6 hPa Calm   1 mph /  1.6 km/h 71 % 0 in /  0.0 mm
02:52 52.9 °F /  11.6 °C 43.3 °F /  6.3 °C 30.3 in /  1026.6 hPa Calm   1 mph /  1.6 km/h 70 % 0 in /  0.0 mm
02:57 52.3 °F /  11.3 °C 43.5 °F /  6.4 °C 30.3 in /  1026.6 hPa Calm   1 mph /  1.6 km/h 72 % 0 in /  0.0 mm
03:02 52.3 °F /  11.3 °C 43.5 °F /  6.4 °C 30.3 in /  1026.6 hPa Calm   1 mph /  1.6 km/h 72 % 0 in /  0.0 mm
03:12 52.9 °F /  11.6 °C 43.7 °F /  6.5 °C 30.3 in /  1026.6 hPa NNE 1 mph /  1.6 km/h 1 mph /  1.6 km/h 71 % 0 in /  0.0 mm
03:17 53.1 °F /  11.7 °C 43.9 °F /  6.6 °C 30.3 in /  1026.6 hPa NE 1 mph /  1.6 km/h 2 mph /  3.2 km/h 71 % 0 in /  0.0 mm
03:22 53.4 °F /  11.9 °C 43.9 °F /  6.6 °C 30.3 in /  1026.6 hPa Calm   2 mph /  3.2 km/h 70 % 0 in /  0.0 mm
03:32 53.1 °F /  11.7 °C 43.2 °F /  6.2 °C 30.3 in /  1026.3 hPa Calm   2 mph /  3.2 km/h 69 % 0 in /  0.0 mm
03:37 52.3 °F /  11.3 °C 43.2 °F /  6.2 °C 30.3 in /  1026.3 hPa Calm   2 mph /  3.2 km/h 71 % 0 in /  0.0 mm
03:42 52.2 °F /  11.2 °C 43.3 °F /  6.3 °C 30.3 in /  1026.3 hPa Calm   2 mph /  3.2 km/h 72 % 0 in /  0.0 mm
03:47 52.2 °F /  11.2 °C 43.3 °F /  6.3 °C 30.3 in /  1026.3 hPa North 1 mph /  1.6 km/h 1 mph /  1.6 km/h 72 % 0 in /  0.0 mm
03:52 52.2 °F /  11.2 °C 43 °F /  6.1 °C 30.3 in /  1026.3 hPa Calm   1 mph /  1.6 km/h 71 % 0 in /  0.0 mm
04:02 51.6 °F /  10.9 °C 43 °F /  6.1 °C 30.3 in /  1026.3 hPa Calm   1 mph /  1.6 km/h 72 % 0 in /  0.0 mm
04:12 49.8 °F /  9.9 °C 42.6 °F /  5.9 °C 30.3 in /  1026.3 hPa WNW 1 mph /  1.6 km/h 1 mph /  1.6 km/h 76 % 0 in /  0.0 mm
04:17 49.5 °F /  9.7 °C 42.6 °F /  5.9 °C 30.3 in /  1026.0 hPa WNW 1 mph /  1.6 km/h 2 mph /  3.2 km/h 77 % 0 in /  0.0 mm
04:22 49.8 °F /  9.9 °C 43 °F /  6.1 °C 30.3 in /  1026.0 hPa Calm   2 mph /  3.2 km/h 77 % 0 in /  0.0 mm
04:27 50.4 °F /  10.2 °C 42.8 °F /  6.0 °C 30.3 in /  1026.0 hPa Calm   2 mph /  3.2 km/h 75 % 0 in /  0.0 mm
04:32 50.2 °F /  10.1 °C 43 °F /  6.1 °C 30.3 in /  1026.0 hPa Calm   1 mph /  1.6 km/h 76 % 0 in /  0.0 mm
04:42 50 °F /  10.0 °C 42.8 °F /  6.0 °C 30.3 in /  1026.0 hPa NNW 1 mph /  1.6 km/h 1 mph /  1.6 km/h 76 % 0 in /  0.0 mm
04:47 50.2 °F /  10.1 °C 42.6 °F /  5.9 °C 30.3 in /  1026.0 hPa Calm   2 mph /  3.2 km/h 75 % 0 in /  0.0 mm
04:52 49.6 °F /  9.8 °C 42.8 °F /  6.0 °C 30.3 in /  1026.0 hPa NW 1 mph /  1.6 km/h 2 mph /  3.2 km/h 77 % 0 in /  0.0 mm
04:57 50 °F /  10.0 °C 43.2 °F /  6.2 °C 30.3 in /  1026.0 hPa NW 1 mph /  1.6 km/h 2 mph /  3.2 km/h 77 % 0 in /  0.0 mm
05:02 50.5 °F /  10.3 °C 43 °F /  6.1 °C 30.3 in /  1026.0 hPa Calm   2 mph /  3.2 km/h 75 % 0 in /  0.0 mm
05:12 49.8 °F /  9.9 °C 42.6 °F /  5.9 °C 30.3 in /  1026.0 hPa NW 1 mph /  1.6 km/h 1 mph /  1.6 km/h 76 % 0 in /  0.0 mm
05:17 50 °F /  10.0 °C 42.8 °F /  6.0 °C 30.3 in /  1026.0 hPa NW 1 mph /  1.6 km/h 1 mph /  1.6 km/h 76 % 0 in /  0.0 mm
05:22 49.8 °F /  9.9 °C 42.6 °F /  5.9 °C 30.3 in /  1026.0 hPa NW 1 mph /  1.6 km/h 1 mph /  1.6 km/h 76 % 0 in /  0.0 mm
05:32 50.2 °F /  10.1 °C 43 °F /  6.1 °C 30.3 in /  1026.0 hPa NW 1 mph /  1.6 km/h 1 mph /  1.6 km/h 76 % 0 in /  0.0 mm
05:37 48.9 °F /  9.4 °C 42.1 °F /  5.6 °C 30.3 in /  1026.0 hPa Calm   1 mph /  1.6 km/h 77 % 0 in /  0.0 mm
05:42 48 °F /  8.9 °C 41.9 °F /  5.5 °C 30.3 in /  1026.0 hPa Calm   1 mph /  1.6 km/h 79 % 0 in /  0.0 mm
05:52 48.9 °F /  9.4 °C 42.6 °F /  5.9 °C 30.3 in /  1025.6 hPa WNW 1 mph /  1.6 km/h 1 mph /  1.6 km/h 79 % 0 in /  0.0 mm
05:57 47.8 °F /  8.8 °C 42.3 °F /  5.7 °C 30.3 in /  1025.6 hPa WNW 1 mph /  1.6 km/h 1 mph /  1.6 km/h 81 % 0 in /  0.0 mm
06:02 47.1 °F /  8.4 °C 41.9 °F /  5.5 °C 30.3 in /  1025.6 hPa Calm   1 mph /  1.6 km/h 82 % 0 in /  0.0 mm
06:07 47.7 °F /  8.7 °C 42.8 °F /  6.0 °C 30.3 in /  1025.6 hPa WNW 1 mph /  1.6 km/h 2 mph /  3.2 km/h 83 % 0 in /  0.0 mm
06:12 48.4 °F /  9.1 °C 42.4 °F /  5.8 °C 30.3 in /  1025.6 hPa Calm   2 mph /  3.2 km/h 80 % 0 in /  0.0 mm
06:17 48 °F /  8.9 °C 42.1 °F /  5.6 °C 30.3 in /  1025.6 hPa Calm   1 mph /  1.6 km/h 80 % 0 in /  0.0 mm
06:22 48.2 °F /  9.0 °C 42.6 °F /  5.9 °C 30.3 in /  1025.6 hPa Calm   1 mph /  1.6 km/h 81 % 0 in /  0.0 mm
06:27 48.4 °F /  9.1 °C 42.8 °F /  6.0 °C 30.3 in /  1025.6 hPa Calm   1 mph /  1.6 km/h 81 % 0 in /  0.0 mm
06:32 48.4 °F /  9.1 °C 42.4 °F /  5.8 °C 30.3 in /  1025.6 hPa Calm   1 mph /  1.6 km/h 80 % 0 in /  0.0 mm
06:37 48 °F /  8.9 °C 42.1 °F /  5.6 °C 30.3 in /  1025.6 hPa Calm   1 mph /  1.6 km/h 80 % 0 in /  0.0 mm
06:42 47.7 °F /  8.7 °C 42.1 °F /  5.6 °C 30.3 in /  1025.6 hPa WNW 1 mph /  1.6 km/h 1 mph /  1.6 km/h 81 % 0 in /  0.0 mm
06:52 47.8 °F /  8.8 °C 42.6 °F /  5.9 °C 30.3 in /  1025.6 hPa Calm   1 mph /  1.6 km/h 82 % 0 in /  0.0 mm
06:57 48.2 °F /  9.0 °C 42.6 °F /  5.9 °C 30.3 in /  1025.6 hPa Calm   1 mph /  1.6 km/h 81 % 0 in /  0.0 mm
07:02 48.6 °F /  9.2 °C 43 °F /  6.1 °C 30.3 in /  1025.6 hPa Calm   1 mph /  1.6 km/h 81 % 0 in /  0.0 mm
07:12 48.4 °F /  9.1 °C 42.8 °F /  6.0 °C 30.3 in /  1025.6 hPa Calm     81 % 0 in /  0.0 mm
07:17 48.4 °F /  9.1 °C 42.8 °F /  6.0 °C 30.3 in /  1025.6 hPa Calm     81 % 0 in /  0.0 mm
07:22 48.2 °F /  9.0 °C 42.6 °F /  5.9 °C 30.3 in /  1025.6 hPa Calm     81 % 0 in /  0.0 mm
07:32 47.7 °F /  8.7 °C 42.4 °F /  5.8 °C 30.3 in /  1025.6 hPa Calm     82 % 0 in /  0.0 mm
07:42 47.8 °F /  8.8 °C 42.6 °F /  5.9 °C 30.3 in /  1025.6 hPa Calm     82 % 0 in /  0.0 mm
07:52 48.6 °F /  9.2 °C 42.6 °F /  5.9 °C 30.3 in /  1025.6 hPa Calm     80 % 0 in /  0.0 mm
07:57 48.9 °F /  9.4 °C 43 °F /  6.1 °C 30.3 in /  1025.6 hPa Calm     80 % 0 in /  0.0 mm
08:02 48.6 °F /  9.2 °C 42.6 °F /  5.9 °C 30.3 in /  1025.6 hPa Calm     80 % 0 in /  0.0 mm
08:12 49.3 °F /  9.6 °C 43.3 °F /  6.3 °C 30.3 in /  1025.6 hPa Calm   2 mph /  3.2 km/h 80 % 0 in /  0.0 mm
08:17 49.6 °F /  9.8 °C 43 °F /  6.1 °C 30.3 in /  1025.6 hPa NNE 1 mph /  1.6 km/h 2 mph /  3.2 km/h 78 % 0 in /  0.0 mm
08:22 50.2 °F /  10.1 °C 43.5 °F /  6.4 °C 30.3 in /  1025.6 hPa Calm   2 mph /  3.2 km/h 78 % 0 in /  0.0 mm
08:32 50.7 °F /  10.4 °C 43.7 °F /  6.5 °C 30.3 in /  1025.6 hPa Calm   1 mph /  1.6 km/h 77 % 0 in /  0.0 mm
08:42 51.3 °F /  10.7 °C 43.9 °F /  6.6 °C 30.3 in /  1025.6 hPa ENE 1 mph /  1.6 km/h 3 mph /  4.8 km/h 76 % 0 in /  0.0 mm
08:52 51.3 °F /  10.7 °C 43.9 °F /  6.6 °C 30.3 in /  1025.6 hPa Calm   3 mph /  4.8 km/h 76 % 0 in /  0.0 mm
08:57 51.6 °F /  10.9 °C 44.2 °F /  6.8 °C 30.3 in /  1025.6 hPa Calm   3 mph /  4.8 km/h 76 % 0 in /  0.0 mm
09:02 52.2 °F /  11.2 °C 44.8 °F /  7.1 °C 30.3 in /  1025.6 hPa Calm   3 mph /  4.8 km/h 76 % 0 in /  0.0 mm
09:07 52.9 °F /  11.6 °C 45.1 °F /  7.3 °C 30.3 in /  1025.6 hPa Calm   3 mph /  4.8 km/h 75 % 0 in /  0.0 mm
09:12 53.2 °F /  11.8 °C 45.1 °F /  7.3 °C 30.3 in /  1025.6 hPa Calm   2 mph /  3.2 km/h 74 % 0 in /  0.0 mm
09:17 53.2 °F /  11.8 °C 44.8 °F /  7.1 °C 30.3 in /  1025.6 hPa Calm   2 mph /  3.2 km/h 73 % 0 in /  0.0 mm
09:22 53.4 °F /  11.9 °C 45.3 °F /  7.4 °C 30.3 in /  1025.6 hPa East 1 mph /  1.6 km/h 2 mph /  3.2 km/h 74 % 0 in /  0.0 mm
09:32 53.4 °F /  11.9 °C 45.3 °F /  7.4 °C 30.3 in /  1025.6 hPa Calm   3 mph /  4.8 km/h 74 % 0 in /  0.0 mm
09:42 53.4 °F /  11.9 °C 45.7 °F /  7.6 °C 30.3 in /  1025.6 hPa SE 2 mph /  3.2 km/h 4 mph /  6.4 km/h 75 % 0 in /  0.0 mm
09:52 54.9 °F /  12.7 °C 46.4 °F /  8.0 °C 30.3 in /  1025.6 hPa SSE 2 mph /  3.2 km/h 5 mph /  8.0 km/h 73 % 0 in /  0.0 mm
09:57 55.2 °F /  12.9 °C 46.8 °F /  8.2 °C 30.3 in /  1025.6 hPa East 1 mph /  1.6 km/h 5 mph /  8.0 km/h 73 % 0 in /  0.0 mm
10:02 55 °F /  12.8 °C 46.2 °F /  7.9 °C 30.3 in /  1025.3 hPa Calm   3 mph /  4.8 km/h 72 % 0 in /  0.0 mm
10:12 55.9 °F /  13.3 °C 47.5 °F /  8.6 °C 30.3 in /  1025.3 hPa SE 2 mph /  3.2 km/h 4 mph /  6.4 km/h 73 % 0 in /  0.0 mm
10:17 55.9 °F /  13.3 °C 47.1 °F /  8.4 °C 30.3 in /  1025.3 hPa SSE 5 mph /  8.0 km/h 5 mph /  8.0 km/h 72 % 0 in /  0.0 mm
10:22 56.1 °F /  13.4 °C 47.3 °F /  8.5 °C 30.3 in /  1025.3 hPa SE 1 mph /  1.6 km/h 6 mph /  9.7 km/h 72 % 0 in /  0.0 mm
10:32 57.2 °F /  14.0 °C 47.8 °F /  8.8 °C 30.3 in /  1025.3 hPa ESE 1 mph /  1.6 km/h 6 mph /  9.7 km/h 71 % 0 in /  0.0 mm
10:37 57.4 °F /  14.1 °C 48 °F /  8.9 °C 30.3 in /  1025.3 hPa ESE 2 mph /  3.2 km/h 6 mph /  9.7 km/h 71 % 0 in /  0.0 mm
10:42 57.9 °F /  14.4 °C 47.8 °F /  8.8 °C 30.3 in /  1025.3 hPa SSE 4 mph /  6.4 km/h 6 mph /  9.7 km/h 69 % 0 in /  0.0 mm
10:47 58.5 °F /  14.7 °C 48.4 °F /  9.1 °C 30.3 in /  1025.3 hPa SE 3 mph /  4.8 km/h 6 mph /  9.7 km/h 69 % 0 in /  0.0 mm
10:52 58.8 °F /  14.9 °C 47.8 °F /  8.8 °C 30.3 in /  1025.3 hPa East 1 mph /  1.6 km/h 6 mph /  9.7 km/h 67 % 0 in /  0.0 mm
11:02 59.9 °F /  15.5 °C 48.6 °F /  9.2 °C 30.3 in /  1025.3 hPa SE 1 mph /  1.6 km/h 7 mph /  11.3 km/h 66 % 0 in /  0.0 mm
11:12 60.6 °F /  15.9 °C 48.7 °F /  9.3 °C 30.3 in /  1024.9 hPa SE 2 mph /  3.2 km/h 7 mph /  11.3 km/h 65 % 0 in /  0.0 mm
11:17 61 °F /  16.1 °C 49.1 °F /  9.5 °C 30.3 in /  1024.9 hPa SE 2 mph /  3.2 km/h 7 mph /  11.3 km/h 65 % 0 in /  0.0 mm
11:22 61.2 °F /  16.2 °C 48.9 °F /  9.4 °C 30.3 in /  1024.9 hPa ESE 5 mph /  8.0 km/h 7 mph /  11.3 km/h 64 % 0 in /  0.0 mm
11:32 62.1 °F /  16.7 °C 49.8 °F /  9.9 °C 30.3 in /  1024.9 hPa East 3 mph /  4.8 km/h 10 mph /  16.1 km/h 64 % 0 in /  0.0 mm
11:42 62.4 °F /  16.9 °C 48.4 °F /  9.1 °C 30.3 in /  1024.9 hPa SE 5 mph /  8.0 km/h 9 mph /  14.5 km/h 60 % 0 in /  0.0 mm
11:47 62.8 °F /  17.1 °C 47.3 °F /  8.5 °C 30.3 in /  1024.9 hPa ESE 3 mph /  4.8 km/h 9 mph /  14.5 km/h 57 % 0 in /  0.0 mm
11:52 63 °F /  17.2 °C 47.5 °F /  8.6 °C 30.3 in /  1024.9 hPa SE 6 mph /  9.7 km/h 11 mph /  17.7 km/h 57 % 0 in /  0.0 mm
12:02 64.2 °F /  17.9 °C 50 °F /  10.0 °C 30.3 in /  1024.6 hPa SE 4 mph /  6.4 km/h 11 mph /  17.7 km/h 60 % 0 in /  0.0 mm
12:12 64.2 °F /  17.9 °C 48.7 °F /  9.3 °C 30.3 in /  1024.6 hPa ESE 3 mph /  4.8 km/h 12 mph /  19.3 km/h 57 % 0 in /  0.0 mm
12:17 64.6 °F /  18.1 °C 50 °F /  10.0 °C 30.3 in /  1024.3 hPa SE 1 mph /  1.6 km/h 12 mph /  19.3 km/h 59 % 0 in /  0.0 mm
12:22 64.8 °F /  18.2 °C 49.6 °F /  9.8 °C 30.3 in /  1024.3 hPa ESE 4 mph /  6.4 km/h 11 mph /  17.7 km/h 58 % 0 in /  0.0 mm
12:32 65.5 °F /  18.6 °C 49.8 °F /  9.9 °C 30.3 in /  1024.3 hPa SE 4 mph /  6.4 km/h 11 mph /  17.7 km/h 57 % 0 in /  0.0 mm
12:37 65.7 °F /  18.7 °C 47.5 °F /  8.6 °C 30.3 in /  1024.3 hPa SSE 6 mph /  9.7 km/h 11 mph /  17.7 km/h 52 % 0 in /  0.0 mm
12:42 65.8 °F /  18.8 °C 48.2 °F /  9.0 °C 30.3 in /  1024.3 hPa SSE 7 mph /  11.3 km/h 10 mph /  16.1 km/h 53 % 0 in /  0.0 mm
12:47 66.6 °F /  19.2 °C 47.8 °F /  8.8 °C 30.3 in /  1024.3 hPa ESE 6 mph /  9.7 km/h 10 mph /  16.1 km/h 51 % 0 in /  0.0 mm
12:52 66.4 °F /  19.1 °C 48.7 °F /  9.3 °C 30.2 in /  1023.9 hPa East 5 mph /  8.0 km/h 12 mph /  19.3 km/h 53 % 0 in /  0.0 mm
13:02 66.9 °F /  19.4 °C 48.2 °F /  9.0 °C 30.2 in /  1023.9 hPa SE 5 mph /  8.0 km/h 12 mph /  19.3 km/h 51 % 0 in /  0.0 mm
13:12 67.6 °F /  19.8 °C 48.4 °F /  9.1 °C 30.2 in /  1023.9 hPa SE 5 mph /  8.0 km/h 12 mph /  19.3 km/h 50 % 0 in /  0.0 mm
13:17 67.5 °F /  19.7 °C 48.7 °F /  9.3 °C 30.2 in /  1023.9 hPa SE 5 mph /  8.0 km/h 12 mph /  19.3 km/h 51 % 0 in /  0.0 mm
13:22 67.6 °F /  19.8 °C 48.4 °F /  9.1 °C 30.2 in /  1023.6 hPa SSW 2 mph /  3.2 km/h 12 mph /  19.3 km/h 50 % 0 in /  0.0 mm
13:32 67.8 °F /  19.9 °C 48 °F /  8.9 °C 30.2 in /  1023.6 hPa SSE 5 mph /  8.0 km/h 11 mph /  17.7 km/h 49 % 0 in /  0.0 mm
13:42 68.5 °F /  20.3 °C 48.6 °F /  9.2 °C 30.2 in /  1023.6 hPa SE 5 mph /  8.0 km/h 11 mph /  17.7 km/h 49 % 0 in /  0.0 mm
13:47 68.2 °F /  20.1 °C 48.4 °F /  9.1 °C 30.2 in /  1023.6 hPa SE 8 mph /  12.9 km/h 10 mph /  16.1 km/h 49 % 0 in /  0.0 mm
13:52 68.7 °F /  20.4 °C 48.7 °F /  9.3 °C 30.2 in /  1023.2 hPa SE 6 mph /  9.7 km/h 10 mph /  16.1 km/h 49 % 0 in /  0.0 mm
13:57 69.4 °F /  20.8 °C 52.2 °F /  11.2 °C 30.2 in /  1023.2 hPa SE 6 mph /  9.7 km/h 10 mph /  16.1 km/h 54 % 0 in /  0.0 mm
14:02 69.4 °F /  20.8 °C 49.5 °F /  9.7 °C 30.2 in /  1023.2 hPa SW 5 mph /  8.0 km/h 10 mph /  16.1 km/h 49 % 0 in /  0.0 mm
14:12 70 °F /  21.1 °C 48.2 °F /  9.0 °C 30.2 in /  1023.2 hPa SSE 5 mph /  8.0 km/h 10 mph /  16.1 km/h 46 % 0 in /  0.0 mm
14:17 70 °F /  21.1 °C 48.2 °F /  9.0 °C 30.2 in /  1023.2 hPa SSE 6 mph /  9.7 km/h 10 mph /  16.1 km/h 46 % 0 in /  0.0 mm
14:22 69.8 °F /  21.0 °C 48.7 °F /  9.3 °C 30.2 in /  1023.2 hPa SSE 5 mph /  8.0 km/h 11 mph /  17.7 km/h 47 % 0 in /  0.0 mm
14:27 70.3 °F /  21.3 °C 46.8 °F /  8.2 °C 30.2 in /  1023.2 hPa ESE 5 mph /  8.0 km/h 11 mph /  17.7 km/h 43 % 0 in /  0.0 mm
14:32 70.3 °F /  21.3 °C 47.5 °F /  8.6 °C 30.2 in /  1023.2 hPa SE 4 mph /  6.4 km/h 11 mph /  17.7 km/h 44 % 0 in /  0.0 mm
14:37 70.9 °F /  21.6 °C 48.6 °F /  9.2 °C 30.2 in /  1022.9 hPa SSE 3 mph /  4.8 km/h 10 mph /  16.1 km/h 45 % 0 in /  0.0 mm
14:42 71.4 °F /  21.9 °C 47.8 °F /  8.8 °C 30.2 in /  1022.9 hPa South 2 mph /  3.2 km/h 10 mph /  16.1 km/h 43 % 0 in /  0.0 mm
14:47 71.4 °F /  21.9 °C 46.6 °F /  8.1 °C 30.2 in /  1022.9 hPa SSE 4 mph /  6.4 km/h 10 mph /  16.1 km/h 41 % 0 in /  0.0 mm
14:52 71.2 °F /  21.8 °C 45.7 °F /  7.6 °C 30.2 in /  1022.9 hPa SE 4 mph /  6.4 km/h 9 mph /  14.5 km/h 40 % 0 in /  0.0 mm
15:02 71.6 °F /  22.0 °C 45.3 °F /  7.4 °C 30.2 in /  1022.6 hPa SE 2 mph /  3.2 km/h 9 mph /  14.5 km/h 39 % 0 in /  0.0 mm
15:12 72.1 °F /  22.3 °C 46.4 °F /  8.0 °C 30.2 in /  1022.2 hPa SE 2 mph /  3.2 km/h 9 mph /  14.5 km/h 40 % 0 in /  0.0 mm
15:17 72 °F /  22.2 °C 46.9 °F /  8.3 °C 30.2 in /  1022.2 hPa SSE 4 mph /  6.4 km/h 8 mph /  12.9 km/h 41 % 0 in /  0.0 mm
15:22 71.8 °F /  22.1 °C 48 °F /  8.9 °C 30.2 in /  1022.2 hPa South 3 mph /  4.8 km/h 8 mph /  12.9 km/h 43 % 0 in /  0.0 mm
15:32 72 °F /  22.2 °C 46.9 °F /  8.3 °C 30.2 in /  1022.2 hPa SSE 4 mph /  6.4 km/h 8 mph /  12.9 km/h 41 % 0 in /  0.0 mm
15:42 72.7 °F /  22.6 °C 47.7 °F /  8.7 °C 30.2 in /  1021.9 hPa ESE 3 mph /  4.8 km/h 11 mph /  17.7 km/h 41 % 0 in /  0.0 mm
15:47 72.5 °F /  22.5 °C 46.8 °F /  8.2 °C 30.2 in /  1021.9 hPa SE 4 mph /  6.4 km/h 11 mph /  17.7 km/h 40 % 0 in /  0.0 mm
15:52 72.9 °F /  22.7 °C 47.8 °F /  8.8 °C 30.2 in /  1021.9 hPa SE 6 mph /  9.7 km/h 11 mph /  17.7 km/h 41 % 0 in /  0.0 mm
15:57 72.9 °F /  22.7 °C 48.4 °F /  9.1 °C 30.2 in /  1021.6 hPa ESE 6 mph /  9.7 km/h 8 mph /  12.9 km/h 42 % 0 in /  0.0 mm
16:02 72.7 °F /  22.6 °C 48.9 °F /  9.4 °C 30.2 in /  1021.6 hPa East 5 mph /  8.0 km/h 8 mph /  12.9 km/h 43 % 0 in /  0.0 mm
16:07 72.1 °F /  22.3 °C 48.4 °F /  9.1 °C 30.2 in /  1021.6 hPa SSE 7 mph /  11.3 km/h 8 mph /  12.9 km/h 43 % 0 in /  0.0 mm
16:17 73 °F /  22.8 °C 47.3 °F /  8.5 °C 30.2 in /  1021.6 hPa SW 5 mph /  8.0 km/h 9 mph /  14.5 km/h 40 % 0 in /  0.0 mm
16:22 72.9 °F /  22.7 °C 45.7 °F /  7.6 °C 30.2 in /  1021.6 hPa East 2 mph /  3.2 km/h 9 mph /  14.5 km/h 38 % 0 in /  0.0 mm
16:27 72.9 °F /  22.7 °C 46.4 °F /  8.0 °C 30.2 in /  1021.6 hPa SSE 3 mph /  4.8 km/h 9 mph /  14.5 km/h 39 % 0 in /  0.0 mm
16:32 73 °F /  22.8 °C 47.3 °F /  8.5 °C 30.2 in /  1021.6 hPa East 3 mph /  4.8 km/h 9 mph /  14.5 km/h 40 % 0 in /  0.0 mm
16:42 73.2 °F /  22.9 °C 49.5 °F /  9.7 °C 30.2 in /  1021.2 hPa ESE 7 mph /  11.3 km/h 9 mph /  14.5 km/h 43 % 0 in /  0.0 mm
16:47 72.7 °F /  22.6 °C 47.7 °F /  8.7 °C 30.2 in /  1021.2 hPa SSE 3 mph /  4.8 km/h 9 mph /  14.5 km/h 41 % 0 in /  0.0 mm
16:52 72.3 °F /  22.4 °C 49.8 °F /  9.9 °C 30.2 in /  1021.2 hPa East 5 mph /  8.0 km/h 9 mph /  14.5 km/h 45 % 0 in /  0.0 mm
16:57 72.3 °F /  22.4 °C 49.8 °F /  9.9 °C 30.2 in /  1021.2 hPa East 4 mph /  6.4 km/h 8 mph /  12.9 km/h 45 % 0 in /  0.0 mm
17:02 72.5 °F /  22.5 °C 47.5 °F /  8.6 °C 30.2 in /  1021.2 hPa SE 4 mph /  6.4 km/h 8 mph /  12.9 km/h 41 % 0 in /  0.0 mm
17:12 72 °F /  22.2 °C 47.7 °F /  8.7 °C 30.2 in /  1020.9 hPa East 6 mph /  9.7 km/h 7 mph /  11.3 km/h 42 % 0 in /  0.0 mm
17:17 72.1 °F /  22.3 °C 47.8 °F /  8.8 °C 30.2 in /  1020.9 hPa SE 3 mph /  4.8 km/h 9 mph /  14.5 km/h 42 % 0 in /  0.0 mm
17:22 72.1 °F /  22.3 °C 47.8 °F /  8.8 °C 30.2 in /  1020.9 hPa SE 3 mph /  4.8 km/h 9 mph /  14.5 km/h 42 % 0 in /  0.0 mm
17:32 72 °F /  22.2 °C 48.2 °F /  9.0 °C 30.2 in /  1020.9 hPa East 3 mph /  4.8 km/h 8 mph /  12.9 km/h 43 % 0 in /  0.0 mm
17:37 72 °F /  22.2 °C 48.2 °F /  9.0 °C 30.1 in /  1020.5 hPa ESE 2 mph /  3.2 km/h 8 mph /  12.9 km/h 43 % 0 in /  0.0 mm
17:42 72 °F /  22.2 °C 48.2 °F /  9.0 °C 30.1 in /  1020.5 hPa SE 3 mph /  4.8 km/h 8 mph /  12.9 km/h 43 % 0 in /  0.0 mm
17:47 72 °F /  22.2 °C 46.4 °F /  8.0 °C 30.1 in /  1020.5 hPa East 2 mph /  3.2 km/h 5 mph /  8.0 km/h 40 % 0 in /  0.0 mm
17:52 72 °F /  22.2 °C 47.7 °F /  8.7 °C 30.1 in /  1020.5 hPa SE 2 mph /  3.2 km/h 5 mph /  8.0 km/h 42 % 0 in /  0.0 mm
17:57 72 °F /  22.2 °C 45.7 °F /  7.6 °C 30.1 in /  1020.5 hPa East 5 mph /  8.0 km/h 6 mph /  9.7 km/h 39 % 0 in /  0.0 mm
18:02 71.6 °F /  22.0 °C 45.3 °F /  7.4 °C 30.1 in /  1020.5 hPa ESE 3 mph /  4.8 km/h 7 mph /  11.3 km/h 39 % 0 in /  0.0 mm
18:12 71.4 °F /  21.9 °C 45.9 °F /  7.7 °C 30.1 in /  1020.5 hPa SE 3 mph /  4.8 km/h 7 mph /  11.3 km/h 40 % 0 in /  0.0 mm
18:17 71.2 °F /  21.8 °C 46.4 °F /  8.0 °C 30.1 in /  1020.5 hPa SE 2 mph /  3.2 km/h 12 mph /  19.3 km/h 41 % 0 in /  0.0 mm
18:22 70.9 °F /  21.6 °C 46 °F /  7.8 °C 30.1 in /  1020.5 hPa SE 3 mph /  4.8 km/h 12 mph /  19.3 km/h 41 % 0 in /  0.0 mm
18:27 70.5 °F /  21.4 °C 45.7 °F /  7.6 °C 30.1 in /  1020.2 hPa SE 2 mph /  3.2 km/h 12 mph /  19.3 km/h 41 % 0 in /  0.0 mm
18:37 70.2 °F /  21.2 °C 46.6 °F /  8.1 °C 30.1 in /  1020.2 hPa ESE 2 mph /  3.2 km/h 8 mph /  12.9 km/h 43 % 0 in /  0.0 mm
18:42 69.8 °F /  21.0 °C 46.2 °F /  7.9 °C 30.1 in /  1020.2 hPa ESE 2 mph /  3.2 km/h 8 mph /  12.9 km/h 43 % 0 in /  0.0 mm
18:52 69.4 °F /  20.8 °C 46.6 °F /  8.1 °C 30.1 in /  1020.2 hPa ESE 3 mph /  4.8 km/h 5 mph /  8.0 km/h 44 % 0 in /  0.0 mm
19:02 69.3 °F /  20.7 °C 47.7 °F /  8.7 °C 30.1 in /  1020.2 hPa SE 4 mph /  6.4 km/h 5 mph /  8.0 km/h 46 % 0 in /  0.0 mm
19:12 68.7 °F /  20.4 °C 48.2 °F /  9.0 °C 30.1 in /  1019.9 hPa ESE 2 mph /  3.2 km/h 5 mph /  8.0 km/h 48 % 0 in /  0.0 mm
19:17 68.5 °F /  20.3 °C 48 °F /  8.9 °C 30.1 in /  1020.2 hPa ESE 3 mph /  4.8 km/h 5 mph /  8.0 km/h 48 % 0 in /  0.0 mm
19:22 68.5 °F /  20.3 °C 47.5 °F /  8.6 °C 30.1 in /  1019.9 hPa ESE 3 mph /  4.8 km/h 5 mph /  8.0 km/h 47 % 0 in /  0.0 mm
19:32 68 °F /  20.0 °C 47.7 °F /  8.7 °C 30.1 in /  1019.9 hPa ESE 1 mph /  1.6 km/h 6 mph /  9.7 km/h 48 % 0 in /  0.0 mm
19:42 66.6 °F /  19.2 °C 47.8 °F /  8.8 °C 30.1 in /  1019.9 hPa East 1 mph /  1.6 km/h 5 mph /  8.0 km/h 51 % 0 in /  0.0 mm
19:47 66.2 °F /  19.0 °C 47.5 °F /  8.6 °C 30.1 in /  1019.9 hPa East 1 mph /  1.6 km/h 4 mph /  6.4 km/h 51 % 0 in /  0.0 mm
19:52 66.4 °F /  19.1 °C 47.7 °F /  8.7 °C 30.1 in /  1019.9 hPa ENE 2 mph /  3.2 km/h 3 mph /  4.8 km/h 51 % 0 in /  0.0 mm
20:02 66 °F /  18.9 °C 47.8 °F /  8.8 °C 30.1 in /  1019.9 hPa ESE 1 mph /  1.6 km/h 3 mph /  4.8 km/h 52 % 0 in /  0.0 mm
20:12 65.3 °F /  18.5 °C 47.7 °F /  8.7 °C 30.1 in /  1019.9 hPa Calm   3 mph /  4.8 km/h 53 % 0 in /  0.0 mm
20:17 65.1 °F /  18.4 °C 47.5 °F /  8.6 °C 30.1 in /  1019.9 hPa Calm   3 mph /  4.8 km/h 53 % 0 in /  0.0 mm
20:22 64.9 °F /  18.3 °C 47.8 °F /  8.8 °C 30.1 in /  1019.9 hPa Calm   3 mph /  4.8 km/h 54 % 0 in /  0.0 mm
20:32 64.2 °F /  17.9 °C 47.7 °F /  8.7 °C 30.1 in /  1019.9 hPa Calm   2 mph /  3.2 km/h 55 % 0 in /  0.0 mm
20:42 63.5 °F /  17.5 °C 47.1 °F /  8.4 °C 30.1 in /  1019.9 hPa Calm   1 mph /  1.6 km/h 55 % 0 in /  0.0 mm
20:47 63.3 °F /  17.4 °C 46.9 °F /  8.3 °C 30.1 in /  1019.9 hPa Calm   1 mph /  1.6 km/h 55 % 0 in /  0.0 mm
20:52 63.3 °F /  17.4 °C 46.9 °F /  8.3 °C 30.1 in /  1019.9 hPa Calm   1 mph /  1.6 km/h 55 % 0 in /  0.0 mm
20:57 63.1 °F /  17.3 °C 46.8 °F /  8.2 °C 30.1 in /  1019.9 hPa Calm     55 % 0 in /  0.0 mm
21:02 62.8 °F /  17.1 °C 46.9 °F /  8.3 °C 30.1 in /  1019.9 hPa Calm     56 % 0 in /  0.0 mm
21:12 62.6 °F /  17.0 °C 46.8 °F /  8.2 °C 30.1 in /  1019.9 hPa Calm     56 % 0 in /  0.0 mm
21:17 62.6 °F /  17.0 °C 46.8 °F /  8.2 °C 30.1 in /  1019.9 hPa Calm   1 mph /  1.6 km/h 56 % 0 in /  0.0 mm
21:22 62.8 °F /  17.1 °C 46.9 °F /  8.3 °C 30.1 in /  1019.9 hPa Calm   1 mph /  1.6 km/h 56 % 0 in /  0.0 mm
21:27 62.2 °F /  16.8 °C 46.8 °F /  8.2 °C 30.1 in /  1019.9 hPa WNW 1 mph /  1.6 km/h 1 mph /  1.6 km/h 57 % 0 in /  0.0 mm
21:32 61.3 °F /  16.3 °C 46.4 °F /  8.0 °C 30.1 in /  1019.9 hPa WNW 1 mph /  1.6 km/h 1 mph /  1.6 km/h 58 % 0 in /  0.0 mm
21:42 61.3 °F /  16.3 °C 46.4 °F /  8.0 °C 30.1 in /  1019.9 hPa Calm   1 mph /  1.6 km/h 58 % 0 in /  0.0 mm
21:47 61.5 °F /  16.4 °C 46.6 °F /  8.1 °C 30.1 in /  1019.9 hPa Calm   1 mph /  1.6 km/h 58 % 0 in /  0.0 mm
21:52 61.5 °F /  16.4 °C 46.6 °F /  8.1 °C 30.1 in /  1019.9 hPa Calm   1 mph /  1.6 km/h 58 % 0 in /  0.0 mm
21:57 61.3 °F /  16.3 °C 46.4 °F /  8.0 °C 30.1 in /  1019.9 hPa Calm   1 mph /  1.6 km/h 58 % 0 in /  0.0 mm
22:02 61 °F /  16.1 °C 46.6 °F /  8.1 °C 30.1 in /  1019.9 hPa Calm   1 mph /  1.6 km/h 59 % 0 in /  0.0 mm
22:12 60.4 °F /  15.8 °C 46.4 °F /  8.0 °C 30.1 in /  1019.5 hPa NNW 2 mph /  3.2 km/h   60 % 0 in /  0.0 mm
22:17 60.6 °F /  15.9 °C 46.2 °F /  7.9 °C 30.1 in /  1019.9 hPa NNW 2 mph /  3.2 km/h 3 mph /  4.8 km/h 59 % 0 in /  0.0 mm
22:22 60.4 °F /  15.8 °C 46.4 °F /  8.0 °C 30.1 in /  1019.9 hPa NW 2 mph /  3.2 km/h 3 mph /  4.8 km/h 60 % 0 in /  0.0 mm
22:32 60.4 °F /  15.8 °C 46.4 °F /  8.0 °C 30.1 in /  1019.5 hPa NW 1 mph /  1.6 km/h 3 mph /  4.8 km/h 60 % 0 in /  0.0 mm
22:37 60.6 °F /  15.9 °C 46.2 °F /  7.9 °C 30.1 in /  1019.5 hPa NW 2 mph /  3.2 km/h 3 mph /  4.8 km/h 59 % 0 in /  0.0 mm
22:42 60.4 °F /  15.8 °C 46.4 °F /  8.0 °C 30.1 in /  1019.5 hPa NW 1 mph /  1.6 km/h 3 mph /  4.8 km/h 60 % 0 in /  0.0 mm
22:52 59.7 °F /  15.4 °C 46.2 °F /  7.9 °C 30.1 in /  1019.5 hPa NW 1 mph /  1.6 km/h 2 mph /  3.2 km/h 61 % 0 in /  0.0 mm
22:57 59.7 °F /  15.4 °C 46.2 °F /  7.9 °C 30.1 in /  1019.5 hPa NW 1 mph /  1.6 km/h 2 mph /  3.2 km/h 61 % 0 in /  0.0 mm
23:02 59.7 °F /  15.4 °C 46.2 °F /  7.9 °C 30.1 in /  1019.5 hPa WNW 1 mph /  1.6 km/h 2 mph /  3.2 km/h 61 % 0 in /  0.0 mm
23:12 59.7 °F /  15.4 °C 46.8 °F /  8.2 °C 30.1 in /  1019.2 hPa Calm   2 mph /  3.2 km/h 62 % 0 in /  0.0 mm
23:32 59.7 °F /  15.4 °C 46.8 °F /  8.2 °C 30.1 in /  1019.2 hPa Calm     62 % 0 in /  0.0 mm
23:42 59.2 °F /  15.1 °C 46.6 °F /  8.1 °C 30.1 in /  1019.2 hPa Calm     63 % 0 in /  0.0 mm
23:47 58.1 °F /  14.5 °C 46.4 °F /  8.0 °C 30.1 in /  1018.8 hPa Calm     65 % 0 in /  0.0 mm
23:52 57.9 °F /  14.4 °C 46.6 °F /  8.1 °C 30.1 in /  1018.8 hPa Calm     66 % 0 in /  0.0 mm
23:57 57.4 °F /  14.1 °C 46.6 °F /  8.1 °C 30.1 in /  1018.8 hPa Calm     67 % 0 in /  0.0 mm
Meteo18
Compliments of Weather Underground - 4 mb

Script developed by  Jim McMurry - jmcmurry@mwt.net Adapted for the template by  Wim van der Kuil - Leuven-Template.eu

You find our weather info also at:

European Weather Network

Weather Underground

Equipment we use:

Weather-station
Davis Vue

Weather-program
Meteohub

Weather-server
Raspberry PI 2 B+

Provider
1 and 1

Davis Vue

Meteohub

Raspberry PI 2 B+

1 and 1